Observations for PALERMO POINT RAISI, Italy (LICJ)

LICJ 170020Z 36008KT 9999 FEW035 25/19 Q1013
LICJ 162350Z 36009KT 9999 FEW035 25/19 Q1013
LICJ 162320Z 35010KT 9999 FEW035 25/20 Q1013
LICJ 162250Z 35010KT 9999 FEW035 25/19 Q1013
LICJ 162220Z 35011KT 9999 FEW035 25/19 Q1013
LICJ 162150Z 36011KT 9999 FEW035 25/19 Q1013
LICJ 162120Z 36011KT 9999 FEW035 25/19 Q1012
LICJ 162050Z 36012KT 9999 FEW040 25/19 Q1012
LICJ 162020Z 36013KT 9999 FEW040 25/18 Q1012
LICJ 161950Z 01014KT 9999 FEW040 25/19 Q1012
LICJ 161920Z 36015KT 9999 FEW040 25/19 Q1011
LICJ 161850Z 36014KT 9999 FEW040 25/20 Q1011
LICJ 161820Z 36016KT 9999 FEW040 25/19 Q1011
LICJ 161750Z 01015KT 9999 SCT040 25/19 Q1010
LICJ 161720Z 01016KT 9999 FEW035 25/19 Q1010
LICJ 161650Z 01017KT 9999 FEW035 25/18 Q1010
LICJ 161620Z 36016KT 9999 SCT035 25/19 Q1010
LICJ 161550Z 05008KT 9999 SCT030 24/20 Q1010 RESHRA 
LICJ 161520Z 05009KT 9999 FEW022 SCT030 23/20 Q1009 RESHRA  
LICJ 161450Z 03024KT 6000 +SHRA FEW025 BKN030 22/19 Q1009   
LICJ 161420Z 01016KT 9999 SCT030 26/20 Q1008
LICJ 161350Z 36017KT 9999 BKN030 26/21 Q1008
LICJ 161320Z 36015KT 9999 SCT030 26/20 Q1008
LICJ 161250Z 36016KT 9999 SCT035 26/20 Q1008
LICJ 161220Z 36016KT 9999 FEW025 SCT065 25/19 Q1008 
LICJ 161150Z 36015KT 9999 FEW025 SCT065 24/19 Q1008 
LICJ 161120Z 01011KT 9999 FEW025 24/18 Q1007
LICJ 161050Z 36009KT 9999 SCT025 23/17 Q1007
LICJ 161020Z 36009KT 9999 SCT030 23/19 Q1007
LICJ 160950Z 01008KT 9999 SCT030 23/19 Q1007
LICJ 160920Z 32015KT 9000 -RA FEW020 SCT035 24/19 Q1006 
LICJ 160850Z 29011KT 9999 FEW035 24/17 Q1006
LICJ 160820Z 29010KT 9999 FEW035 24/16 Q1005
LICJ 160750Z 29009KT 9999 SCT035 24/17 Q1005
LICJ 160720Z 32012KT 9999 BKN035 24/18 Q1006
LICJ 160650Z 31017KT 9999 BKN035 24/19 Q1006
LICJ 160620Z 29019KT 9999 BKN035 24/17 Q1006
LICJ 160550Z 29020KT 9999 BKN035 24/18 Q1005
LICJ 160520Z 28017KT 9999 BKN035 24/17 Q1005
LICJ 160450Z 27017KT 9999 BKN035 24/18 Q1005
LICJ 160420Z 28016KT 9999 BKN030 24/18 Q1005
LICJ 160350Z 28020KT 9999 BKN030 24/17 Q1005
LICJ 160320Z 28022KT 9999 SCT030 24/17 Q1005
LICJ 160250Z 28020KT 9999 FEW030 24/17 Q1005
LICJ 160220Z 28022KT 9999 FEW030 25/18 Q1005
LICJ 160150Z 28023KT CAVOK 25/19 Q1006  
LICJ 160120Z 27023KT 9999 FEW030 25/18 Q1005
LICJ 160050Z 27025KT 9999 FEW030 25/17 Q1005
LICJ 160020Z 27021KT 9999 FEW030 26/17 Q1006
LICJ 152350Z 27021KT 9999 FEW030 26/17 Q1006